Time;durP1;ratioP1;P1;durP2;ratioP2;P2;SDS_P1;SDS_P2;PMS_P1;PMS_P2;Temp;Humidity;BMP_temperature;BMP_pressure;BME280_temperature;BME280_humidity;BME280_pressure;Samples;Min_cycle;Max_cycle;Signal;HPM_P1;HPM_P2
2022/07/10 00:01:21;;;;;;;;;2.00;1.75;;;;;21.69;43.67;102435.50;5067526;28;45439;-53
2022/07/10 00:03:49;;;;;;;;;2.75;2.00;;;;;21.68;43.68;102427.56;5066091;28;45425;-53
2022/07/10 00:06:15;;;;;;;;;2.75;2.00;;;;;21.65;43.90;102430.50;5074944;28;47966;-54
2022/07/10 00:08:42;;;;;;;;;2.00;2.00;;;;;21.65;44.05;102433.19;5066966;28;45589;-53
2022/07/10 00:11:08;;;;;;;;;3.00;1.25;;;;;21.61;44.09;102432.56;5067207;28;45631;-52
2022/07/10 00:13:34;;;;;;;;;2.75;2.00;;;;;21.61;44.25;102429.88;5066899;28;45423;-51
2022/07/10 00:16:01;;;;;;;;;1.75;1.75;;;;;21.62;44.29;102438.78;5066992;28;46145;-50
2022/07/10 00:18:30;;;;;;;;;2.25;2.00;;;;;21.55;44.17;102427.69;5069797;28;45834;-56
2022/07/10 00:20:56;;;;;;;;;1.00;1.00;;;;;21.52;44.31;102422.56;5068386;28;45925;-53
2022/07/10 00:23:21;;;;;;;;;3.00;1.75;;;;;21.46;44.42;102437.31;5068836;28;45849;-53
2022/07/10 00:25:47;;;;;;;;;1.00;1.00;;;;;21.41;44.46;102426.09;5067820;28;45516;-57
2022/07/10 00:28:12;;;;;;;;;2.50;2.00;;;;;21.34;44.39;102427.56;5066017;28;45554;-58
2022/07/10 00:30:38;;;;;;;;;2.00;2.00;;;;;21.26;44.55;102432.63;5067622;28;45433;-58
2022/07/10 00:33:04;;;;;;;;;2.00;2.00;;;;;21.23;44.70;102427.50;5064972;28;45518;-56
2022/07/10 00:35:30;;;;;;;;;1.50;1.50;;;;;21.22;45.04;102433.81;5067192;28;45965;-52
2022/07/10 00:37:55;;;;;;;;;3.25;2.00;;;;;21.17;45.07;102438.69;5069010;28;45529;-57
2022/07/10 00:40:21;;;;;;;;;2.75;1.00;;;;;21.13;45.47;102437.22;5074716;28;45498;-56
2022/07/10 00:42:46;;;;;;;;;2.00;2.00;;;;;21.11;45.46;102437.34;5068398;28;45512;-54
2022/07/10 00:45:12;;;;;;;;;2.25;2.25;;;;;21.11;45.34;102439.19;5066986;28;46105;-53
2022/07/10 00:47:37;;;;;;;;;2.00;2.00;;;;;21.10;45.73;102437.47;5066258;28;45439;-55
2022/07/10 00:50:04;;;;;;;;;2.00;2.00;;;;;21.03;45.67;102429.03;5070056;28;45474;-56
2022/07/10 00:52:31;;;;;;;;;1.50;1.25;;;;;20.99;45.98;102434.75;5069006;28;45688;-57
2022/07/10 00:54:57;;;;;;;;;4.00;3.75;;;;;20.96;45.86;102426.94;5067110;28;46151;-54
2022/07/10 00:57:23;;;;;;;;;4.00;2.75;;;;;20.93;46.26;102428.00;5067160;28;45499;-57
2022/07/10 00:59:49;;;;;;;;;1.50;1.00;;;;;20.89;46.33;102422.06;5066882;28;45390;-58
2022/07/10 01:02:17;;;;;;;;;5.25;2.75;;;;;20.86;46.43;102422.28;5067315;28;46560;-56
2022/07/10 01:04:42;;;;;;;;;2.25;2.00;;;;;20.84;46.51;102437.59;5067070;28;46044;-56
2022/07/10 01:07:08;;;;;;;;;2.00;2.00;;;;;20.80;46.88;102429.94;5065484;28;46692;-57
2022/07/10 01:09:34;;;;;;;;;2.00;1.75;;;;;20.76;46.56;102420.41;5068324;28;45595;-56
2022/07/10 01:12:01;;;;;;;;;3.00;2.75;;;;;20.78;46.72;102421.19;5067949;27;45614;-56
2022/07/10 01:14:28;;;;;;;;;3.00;1.00;;;;;20.81;47.03;102420.94;5070099;28;45602;-58
2022/07/10 01:16:54;;;;;;;;;2.25;2.25;;;;;20.82;46.93;102415.44;5068529;28;45441;-56
2022/07/10 01:19:20;;;;;;;;;2.25;1.75;;;;;20.82;47.08;102426.16;5068272;28;45885;-55
2022/07/10 01:21:45;;;;;;;;;1.50;1.50;;;;;20.79;47.08;102422.88;5068054;28;45506;-57
2022/07/10 01:24:11;;;;;;;;;4.75;4.00;;;;;20.75;47.13;102432.94;5067078;28;45362;-57
2022/07/10 01:26:41;;;;;;;;;2.50;1.75;;;;;20.73;46.96;102431.38;5066564;28;45405;-57
2022/07/10 01:29:08;;;;;;;;;2.00;2.00;;;;;20.71;47.39;102439.53;5067046;28;45727;-57
2022/07/10 01:31:33;;;;;;;;;3.00;2.25;;;;;20.65;47.49;102433.78;5066675;28;45734;-56
2022/07/10 01:34:00;;;;;;;;;4.75;2.75;;;;;20.62;47.38;102430.38;5067215;28;45520;-57
2022/07/10 01:36:28;;;;;;;;;3.50;2.75;;;;;20.63;47.36;102432.06;5070563;28;45456;-55
2022/07/10 01:38:54;;;;;;;;;2.00;2.00;;;;;20.59;47.52;102424.38;5069377;28;46542;-57
2022/07/10 01:41:20;;;;;;;;;4.00;2.00;;;;;20.55;47.61;102425.59;5068643;28;45532;-56
2022/07/10 01:43:47;;;;;;;;;1.75;1.75;;;;;20.54;47.49;102430.09;5068523;28;45557;-57
2022/07/10 01:46:13;;;;;;;;;2.50;2.25;;;;;20.52;47.84;102421.28;5067017;28;45472;-57
2022/07/10 01:48:39;;;;;;;;;8.00;2.75;;;;;20.51;47.65;102427.63;5066232;28;45402;-55
2022/07/10 01:51:06;;;;;;;;;4.50;2.00;;;;;20.46;48.07;102421.78;5069511;28;45589;-57
2022/07/10 01:53:31;;;;;;;;;1.75;1.75;;;;;20.47;48.36;102426.16;5068081;28;45492;-57
2022/07/10 01:55:58;;;;;;;;;3.75;2.25;;;;;20.45;48.37;102422.72;5067703;28;45473;-58
2022/07/10 01:58:23;;;;;;;;;10.50;9.00;;;;;20.38;48.09;102421.44;5067107;28;45770;-57
2022/07/10 02:00:49;;;;;;;;;3.50;2.25;;;;;20.34;48.10;102428.84;5066798;28;45553;-58
2022/07/10 02:05:59;;;;;;;;;3.00;2.25;;;;;20.34;48.11;102434.19;5066251;28;45593;-57
2022/07/10 02:08:24;;;;;;;;;2.50;1.75;;;;;20.28;48.11;102436.47;5066388;28;45503;-56
2022/07/10 02:10:50;;;;;;;;;4.00;2.75;;;;;20.20;48.63;102437.00;5068031;28;45414;-56
2022/07/10 02:13:19;;;;;;;;;3.75;1.50;;;;;20.17;48.57;102439.06;5072957;28;46049;-54
2022/07/10 02:15:46;;;;;;;;;4.50;3.25;;;;;20.14;48.82;102436.59;5075676;28;45637;-56
2022/07/10 02:18:11;;;;;;;;;3.25;3.00;;;;;20.13;48.91;102433.06;5073866;28;45394;-56
2022/07/10 02:20:36;;;;;;;;;4.00;2.75;;;;;20.13;48.75;102440.25;5067361;28;45280;-56
2022/07/10 02:23:02;;;;;;;;;4.75;3.25;;;;;20.10;48.79;102435.13;5066564;28;45916;-56
2022/07/10 02:25:28;;;;;;;;;3.50;2.25;;;;;20.01;48.65;102417.94;5067207;28;45378;-56
2022/07/10 02:27:53;;;;;;;;;2.50;2.50;;;;;19.99;49.19;102426.06;5066994;28;45458;-55
2022/07/10 02:30:19;;;;;;;;;4.50;3.25;;;;;19.98;48.93;102423.47;5067245;28;45443;-56
2022/07/10 02:32:45;;;;;;;;;4.50;3.25;;;;;19.96;49.04;102415.56;5066955;28;45862;-53
2022/07/10 02:35:10;;;;;;;;;3.00;2.00;;;;;19.94;49.46;102412.16;5066842;28;45330;-55
2022/07/10 02:37:36;;;;;;;;;2.00;2.00;;;;;19.93;49.06;102402.44;5067133;28;45409;-56
2022/07/10 02:40:02;;;;;;;;;5.50;2.25;;;;;19.88;49.22;102407.25;5067142;28;45295;-55
2022/07/10 02:42:27;;;;;;;;;2.50;2.50;;;;;19.87;49.47;102415.38;5066869;28;45317;-53
2022/07/10 02:44:52;;;;;;;;;4.25;1.75;;;;;19.80;49.69;102405.13;5067277;28;45357;-54
2022/07/10 02:47:18;;;;;;;;;3.00;3.00;;;;;19.75;49.61;102399.28;5067088;28;45354;-54
2022/07/10 02:49:43;;;;;;;;;3.50;3.50;;;;;19.72;49.82;102391.44;5067648;28;45251;-55
2022/07/10 02:52:09;;;;;;;;;3.50;3.50;;;;;19.69;49.68;102397.03;5070574;27;45396;-55
2022/07/10 02:54:35;;;;;;;;;5.00;3.25;;;;;19.66;49.96;102389.22;5067019;28;45342;-55
2022/07/10 02:57:00;;;;;;;;;2.75;2.00;;;;;19.67;49.39;102398.97;5066941;28;45346;-53
2022/07/10 02:59:26;;;;;;;;;2.50;2.00;;;;;19.69;50.02;102396.19;5067193;28;45172;-55
2022/07/10 03:01:51;;;;;;;;;3.75;2.75;;;;;19.73;50.15;102397.66;5066790;28;45345;-54
2022/07/10 03:04:17;;;;;;;;;3.75;3.00;;;;;19.76;50.13;102402.81;5066418;28;45299;-55
2022/07/10 03:06:43;;;;;;;;;7.00;4.50;;;;;19.75;49.85;102398.41;5066955;28;45525;-55
2022/07/10 03:09:08;;;;;;;;;4.75;4.75;;;;;19.74;49.69;102397.53;5067103;28;45240;-55
2022/07/10 03:11:33;;;;;;;;;4.00;2.00;;;;;19.76;49.76;102394.78;5066415;28;45417;-55
2022/07/10 03:13:59;;;;;;;;;5.00;3.50;;;;;19.72;49.93;102398.63;5066693;28;45358;-56
2022/07/10 03:16:24;;;;;;;;;3.25;2.50;;;;;19.69;50.24;102404.19;5066627;28;45382;-55
2022/07/10 03:18:50;;;;;;;;;4.75;3.00;;;;;19.68;50.35;102398.00;5066091;28;45480;-53
2022/07/10 03:21:15;;;;;;;;;3.00;2.50;;;;;19.65;49.75;102392.00;5066720;28;46029;-56
2022/07/10 03:23:40;;;;;;;;;3.75;3.25;;;;;19.58;49.97;102390.72;5062970;28;45367;-56
2022/07/10 03:26:06;;;;;;;;;4.50;4.50;;;;;19.53;50.14;102397.22;5063477;28;45378;-54
2022/07/10 03:28:31;;;;;;;;;5.75;4.75;;;;;19.50;50.40;102392.09;5063249;28;45302;-55
2022/07/10 03:30:57;;;;;;;;;3.25;3.00;;;;;19.48;50.66;102398.50;5062523;28;46305;-55
2022/07/10 03:33:22;;;;;;;;;4.00;4.00;;;;;19.50;50.67;102391.22;5062904;28;45381;-56
2022/07/10 03:35:48;;;;;;;;;6.50;3.50;;;;;19.52;50.35;102392.00;5062871;28;45379;-56
2022/07/10 03:38:14;;;;;;;;;4.25;2.50;;;;;19.55;50.50;102398.94;5063415;28;45486;-55
2022/07/10 03:40:39;;;;;;;;;4.00;3.00;;;;;19.50;50.77;102391.22;5063068;28;45477;-54
2022/07/10 03:43:05;;;;;;;;;5.75;3.00;;;;;19.47;50.45;102407.50;5063129;28;45233;-56
2022/07/10 03:45:30;;;;;;;;;4.00;3.25;;;;;19.44;50.57;102397.03;5063015;28;45524;-57
2022/07/10 03:47:55;;;;;;;;;5.00;2.25;;;;;19.43;50.62;102396.19;5063134;28;45301;-53
2022/07/10 03:50:21;;;;;;;;;3.00;3.00;;;;;19.44;50.96;102381.00;5067169;28;45952;-54
2022/07/10 03:52:46;;;;;;;;;6.00;3.75;;;;;19.41;51.13;102392.75;5062972;28;45371;-54
2022/07/10 03:55:12;;;;;;;;;6.00;4.00;;;;;19.33;50.54;102388.91;5063062;28;45357;-54
2022/07/10 04:00:23;;;;;;;;;4.25;3.75;;;;;19.25;51.22;102384.09;5062888;28;45724;-54
2022/07/10 04:02:54;;;;;;;;;5.00;3.50;;;;;19.22;51.11;102384.31;5062709;28;45258;-56
2022/07/10 04:05:20;;;;;;;;;4.25;4.25;;;;;19.18;51.22;102396.16;5062334;28;45243;-56
2022/07/10 04:07:45;;;;;;;;;3.25;3.25;;;;;19.11;51.36;102377.03;5062664;28;46370;-57
2022/07/10 04:10:11;;;;;;;;;4.00;4.00;;;;;19.07;51.31;102388.91;5062508;28;45326;-56
2022/07/10 04:12:36;;;;;;;;;3.00;3.00;;;;;19.03;51.22;102391.88;5062582;28;45224;-56
2022/07/10 04:15:02;;;;;;;;;4.25;3.00;;;;;19.01;51.78;102386.63;5062361;28;45541;-56
2022/07/10 04:17:28;;;;;;;;;3.75;3.00;;;;;19.00;51.90;102387.59;5062318;28;45218;-57
2022/07/10 04:19:53;;;;;;;;;5.00;4.00;;;;;18.98;51.46;102396.69;5061106;28;45567;-57
2022/07/10 04:22:19;;;;;;;;;3.00;3.00;;;;;18.94;51.34;102394.22;5062358;28;45433;-57
2022/07/10 04:24:44;;;;;;;;;3.50;3.50;;;;;18.93;51.48;102397.84;5062543;28;45282;-57
2022/07/10 04:27:10;;;;;;;;;5.50;3.00;;;;;18.93;51.97;102392.50;5062555;28;45326;-57
2022/07/10 04:29:35;;;;;;;;;3.25;2.75;;;;;18.95;52.05;102397.72;5062377;28;45903;-57
2022/07/10 04:32:01;;;;;;;;;3.25;3.25;;;;;18.98;51.99;102400.22;5062308;28;45373;-57
2022/07/10 04:34:26;;;;;;;;;4.50;4.00;;;;;18.98;52.16;102394.03;5060846;28;45429;-56
2022/07/10 04:36:52;;;;;;;;;4.75;4.00;;;;;18.97;51.96;102390.50;5062546;28;45306;-57
2022/07/10 04:39:18;;;;;;;;;4.50;4.50;;;;;18.93;52.21;102392.50;5062113;28;45344;-57
2022/07/10 04:41:43;;;;;;;;;5.00;5.00;;;;;18.94;52.14;102390.69;5062268;28;45460;-57
2022/07/10 04:44:09;;;;;;;;;4.00;4.00;;;;;18.94;51.81;102394.22;5062305;28;45239;-56
2022/07/10 04:46:34;;;;;;;;;5.75;4.75;;;;;18.93;52.28;102394.31;5062314;28;45351;-57
2022/07/10 04:48:59;;;;;;;;;4.00;4.00;;;;;18.91;52.29;102391.75;5061680;28;46294;-57
2022/07/10 04:51:25;;;;;;;;;6.50;4.00;;;;;18.92;51.86;102390.81;5067419;28;45287;-57
2022/07/10 04:53:50;;;;;;;;;5.50;5.00;;;;;18.97;52.50;102393.16;5062149;28;45291;-57
2022/07/10 04:56:16;;;;;;;;;5.25;4.00;;;;;19.01;52.03;102391.97;5062332;28;45411;-57
2022/07/10 04:58:41;;;;;;;;;4.50;4.00;;;;;19.01;52.42;102386.63;5061802;28;46014;-57
2022/07/10 05:01:07;;;;;;;;;8.00;4.00;;;;;19.02;51.99;102387.50;5061919;28;45453;-57
2022/07/10 05:03:32;;;;;;;;;8.00;4.25;;;;;18.98;52.39;102386.00;5061749;28;45149;-57
2022/07/10 05:05:57;;;;;;;;;4.50;3.00;;;;;18.97;52.33;102398.50;5061672;28;45448;-57
2022/07/10 05:08:23;;;;;;;;;7.00;4.00;;;;;18.96;52.10;102397.66;5061642;28;45489;-58
2022/07/10 05:10:49;;;;;;;;;3.00;3.00;;;;;18.95;52.39;102406.59;5061708;28;45358;-55
2022/07/10 05:13:14;;;;;;;;;5.25;3.75;;;;;18.90;52.27;102395.41;5061765;28;45339;-56
2022/07/10 05:15:39;;;;;;;;;5.25;4.00;;;;;18.89;52.05;102398.19;5062004;28;45306;-56
2022/07/10 05:18:05;;;;;;;;;5.25;3.75;;;;;18.89;52.14;102399.03;5061293;28;45987;-56
2022/07/10 05:20:31;;;;;;;;;5.75;4.00;;;;;18.90;52.56;102405.22;5061637;28;45252;-57
2022/07/10 05:22:56;;;;;;;;;6.75;5.50;;;;;18.93;52.53;102415.69;5061704;28;45331;-57
2022/07/10 05:25:22;;;;;;;;;7.25;5.50;;;;;18.95;52.50;102408.41;5061589;28;45419;-56
2022/07/10 05:27:48;;;;;;;;;7.00;3.00;;;;;18.99;52.10;102407.25;5061314;28;45372;-56
2022/07/10 05:30:13;;;;;;;;;3.75;1.75;;;;;19.08;52.43;102411.13;5061620;28;45287;-56
2022/07/10 05:32:45;;;;;;;;;3.00;3.00;;;;;19.16;52.55;102406.09;5061370;28;45518;-56
2022/07/10 05:35:12;;;;;;;;;3.50;3.50;;;;;19.21;51.92;102404.84;5061355;28;45296;-56
2022/07/10 05:37:37;;;;;;;;;4.25;4.25;;;;;19.25;51.88;102406.31;5061169;28;46175;-56
2022/07/10 05:40:03;;;;;;;;;5.00;4.75;;;;;19.28;52.35;102410.63;5061346;28;45314;-57
2022/07/10 05:42:29;;;;;;;;;4.00;4.00;;;;;19.35;51.91;102414.53;5061526;28;45295;-57
2022/07/10 05:44:54;;;;;;;;;4.75;4.75;;;;;19.43;52.16;102416.69;5061095;28;45457;-56
2022/07/10 05:47:20;;;;;;;;;5.50;5.00;;;;;19.49;52.13;102411.75;5060877;28;45469;-56
2022/07/10 05:49:45;;;;;;;;;4.75;4.75;;;;;19.56;52.17;102422.88;5061845;28;45293;-56
2022/07/10 05:52:11;;;;;;;;;4.25;4.25;;;;;19.60;51.90;102416.41;5064295;27;45149;-55
2022/07/10 05:54:37;;;;;;;;;3.00;3.00;;;;;19.67;51.52;102416.81;5061432;28;45540;-56
2022/07/10 05:57:03;;;;;;;;;3.25;3.25;;;;;19.76;51.47;102413.50;5060902;28;45244;-57
2022/07/10 05:59:28;;;;;;;;;4.00;4.00;;;;;19.81;51.23;102416.69;5061151;28;45335;-56
2022/07/10 06:01:53;;;;;;;;;3.75;3.00;;;;;19.88;51.23;102417.94;5060882;28;45680;-57
2022/07/10 06:04:19;;;;;;;;;3.00;3.00;;;;;19.91;51.42;102415.06;5060761;28;45593;-56
2022/07/10 06:06:46;;;;;;;;;3.00;2.75;;;;;19.93;50.92;102410.47;5061005;28;45284;-56
2022/07/10 06:09:11;;;;;;;;;5.00;3.25;;;;;19.97;51.38;102413.75;5061031;28;45464;-54
2022/07/10 06:11:37;;;;;;;;;5.00;3.00;;;;;20.01;51.16;102425.97;5060984;28;45283;-56
2022/07/10 06:14:03;;;;;;;;;4.25;4.25;;;;;20.02;51.06;102417.81;5060997;28;45342;-55
2022/07/10 06:16:28;;;;;;;;;4.75;4.00;;;;;20.05;50.55;102414.91;5058939;28;45393;-57
2022/07/10 06:18:54;;;;;;;;;2.00;1.25;;;;;20.10;50.75;102419.94;5060434;28;45372;-53
2022/07/10 06:21:21;;;;;;;;;5.50;3.25;;;;;20.16;50.43;102410.63;5060843;28;45334;-55
2022/07/10 06:23:47;;;;;;;;;6.25;3.75;;;;;20.18;50.61;102404.16;5060918;28;45527;-54
2022/07/10 06:26:13;;;;;;;;;4.00;4.00;;;;;20.24;50.11;102410.91;5060379;28;45613;-57
2022/07/10 06:28:39;;;;;;;;;3.25;2.50;;;;;20.34;50.22;102407.41;5060754;27;45284;-57
2022/07/10 06:31:05;;;;;;;;;3.00;2.00;;;;;20.44;50.49;102407.63;5060673;28;45396;-58
2022/07/10 06:33:35;;;;;;;;;4.75;3.00;;;;;20.56;50.20;102413.91;5060453;28;45483;-57
2022/07/10 06:36:01;;;;;;;;;3.00;3.00;;;;;20.59;50.14;102411.81;5060262;28;46328;-57
2022/07/10 06:38:27;;;;;;;;;5.00;3.25;;;;;20.63;49.77;102399.94;5060864;28;45177;-57
2022/07/10 06:40:52;;;;;;;;;3.50;3.50;;;;;20.68;49.78;102404.06;5060627;28;45134;-57
2022/07/10 06:43:18;;;;;;;;;3.00;3.00;;;;;20.73;49.71;102408.13;5060905;28;45336;-56
2022/07/10 06:45:44;;;;;;;;;3.75;2.00;;;;;20.75;49.28;102403.50;5060362;28;46240;-57
2022/07/10 06:48:10;;;;;;;;;4.25;3.00;;;;;20.81;49.19;102412.91;5060448;28;45335;-56
2022/07/10 06:50:35;;;;;;;;;4.00;3.25;;;;;20.86;49.28;102405.38;5064789;28;45406;-57
2022/07/10 06:53:02;;;;;;;;;2.00;2.00;;;;;20.89;49.16;102408.66;5060624;28;45477;-57
2022/07/10 06:55:28;;;;;;;;;4.75;3.75;;;;;20.94;48.96;102412.81;5060026;28;45330;-57
2022/07/10 06:57:55;;;;;;;;;3.75;2.75;;;;;21.01;48.94;102403.31;5061422;28;45307;-57
2022/07/10 07:00:21;;;;;;;;;3.00;3.00;;;;;21.09;48.31;102414.28;5063640;28;45405;-57
2022/07/10 07:02:47;;;;;;;;;4.25;2.00;;;;;21.12;48.57;102406.03;5063967;28;45253;-57
2022/07/10 07:05:13;;;;;;;;;4.00;3.00;;;;;21.18;47.97;102400.22;5062969;28;46084;-56
2022/07/10 07:07:38;;;;;;;;;3.25;3.25;;;;;21.23;48.00;102403.38;5063819;28;45645;-57
2022/07/10 07:10:05;;;;;;;;;4.00;3.00;;;;;21.25;47.80;102409.50;5063826;28;45322;-54
2022/07/10 07:12:31;;;;;;;;;3.75;3.00;;;;;21.28;47.90;102411.09;5063903;28;45619;-54
2022/07/10 07:14:57;;;;;;;;;4.25;2.75;;;;;21.33;47.70;102420.50;5063249;28;45460;-57
2022/07/10 07:17:24;;;;;;;;;2.00;2.00;;;;;21.32;47.60;102412.53;5063575;28;45318;-55
2022/07/10 07:25:19;;;;;;;;;4.00;2.00;;;;;21.31;47.18;102397.44;5063308;28;45435;-54
2022/07/10 07:27:45;;;;;;;;;2.25;1.75;;;;;21.37;46.74;102399.66;5061608;28;45391;-57
2022/07/10 07:30:14;;;;;;;;;4.50;2.50;;;;;21.38;46.89;102398.66;5063627;28;45209;-56
2022/07/10 07:32:41;;;;;;;;;1.75;1.75;;;;;21.40;46.66;102397.56;5063086;28;45454;-52
2022/07/10 07:35:07;;;;;;;;;5.50;1.75;;;;;21.40;46.56;102396.72;5062835;28;46112;-50
2022/07/10 07:37:47;;;;;;;;;6.00;3.75;;;;;21.44;46.57;102387.47;5062976;28;45313;-54
2022/07/10 07:40:22;;;;;;;;;2.50;1.50;;;;;21.48;46.00;102383.56;5063224;28;45346;-57
2022/07/10 07:42:51;;;;;;;;;1.25;0.50;;;;;21.48;46.35;102383.56;5063156;28;45379;-55
2022/07/10 07:45:17;;;;;;;;;3.25;1.00;;;;;21.47;46.10;102381.84;5062876;28;45509;-56
2022/07/10 07:47:47;;;;;;;;;1.75;1.75;;;;;21.45;45.68;102373.94;5062607;28;45319;-55
2022/07/10 07:50:14;;;;;;;;;3.00;1.75;;;;;21.49;45.53;102366.53;5066956;28;45314;-54
2022/07/10 07:52:40;;;;;;;;;2.75;1.25;;;;;21.57;45.31;102382.00;5062395;28;45376;-58
2022/07/10 07:55:06;;;;;;;;;0.75;0.75;;;;;21.60;45.90;102379.06;5066360;27;45988;-58
2022/07/10 07:57:32;;;;;;;;;3.00;1.75;;;;;21.61;45.81;102378.06;5065805;27;45287;-59
2022/07/10 07:59:57;;;;;;;;;3.00;2.00;;;;;21.59;45.27;102383.56;5071843;27;45434;-59
2022/07/10 08:02:23;;;;;;;;;2.50;2.00;;;;;21.57;45.21;102387.38;5071477;28;45305;-59
2022/07/10 08:04:48;;;;;;;;;1.50;1.50;;;;;21.58;45.30;102387.22;5071683;28;45563;-59
2022/07/10 08:07:14;;;;;;;;;1.25;1.25;;;;;21.61;45.12;102378.06;5074231;28;45468;-59
2022/07/10 08:09:39;;;;;;;;;4.25;3.00;;;;;21.63;45.23;102381.47;5069492;28;45173;-59
2022/07/10 08:12:05;;;;;;;;;1.50;1.00;;;;;21.67;44.91;102381.13;5069713;28;45248;-59
2022/07/10 08:14:31;;;;;;;;;1.75;1.75;;;;;21.73;44.83;102379.78;5076249;28;45453;-59
2022/07/10 08:16:56;;;;;;;;;2.00;2.00;;;;;21.77;44.80;102383.06;5070142;28;45235;-58
2022/07/10 08:19:22;;;;;;;;;1.75;1.75;;;;;21.79;44.58;102378.41;5074295;28;45233;-58
2022/07/10 08:21:47;;;;;;;;;3.00;2.00;;;;;21.83;44.29;102379.91;5068808;28;45390;-59
2022/07/10 08:24:14;;;;;;;;;1.75;1.75;;;;;21.85;44.07;102377.94;5070294;28;46239;-58
2022/07/10 08:26:40;;;;;;;;;4.00;2.00;;;;;21.87;44.13;102375.97;5070200;28;45439;-58
2022/07/10 08:29:05;;;;;;;;;4.00;3.50;;;;;21.89;44.11;102374.03;5072276;28;45608;-58
2022/07/10 08:31:32;;;;;;;;;4.00;2.00;;;;;21.95;43.92;102378.88;5067248;28;45433;-58
2022/07/10 08:33:58;;;;;;;;;2.75;1.50;;;;;21.98;43.81;102376.81;5070629;28;45472;-58
2022/07/10 08:36:24;;;;;;;;;3.50;2.00;;;;;22.05;43.78;102368.28;5068745;28;45279;-53
2022/07/10 08:38:50;;;;;;;;;2.25;2.00;;;;;22.10;43.66;102369.59;5071573;28;45596;-59
2022/07/10 08:41:18;;;;;;;;;3.00;1.25;;;;;22.11;43.60;102373.16;5073305;28;45517;-59
2022/07/10 08:43:44;;;;;;;;;2.00;2.00;;;;;22.14;43.18;102379.13;5070325;28;46385;-59
2022/07/10 08:46:12;;;;;;;;;2.00;2.00;;;;;22.22;43.32;102379.34;5069816;28;45402;-58
2022/07/10 08:48:42;;;;;;;;;4.00;2.25;;;;;22.26;43.16;102377.25;5067259;27;45444;-59
2022/07/10 08:51:16;;;;;;;;;2.75;2.00;;;;;22.31;42.89;102367.00;5070881;28;45413;-58
2022/07/10 08:53:44;;;;;;;;;2.75;2.75;;;;;22.39;43.25;102363.66;5068286;28;45352;-58
2022/07/10 08:56:10;;;;;;;;;1.75;1.75;;;;;22.42;42.69;102358.88;5069243;27;45288;-57
2022/07/10 08:58:37;;;;;;;;;3.75;2.25;;;;;22.45;42.90;102352.41;5072192;28;45297;-59
2022/07/10 09:01:03;;;;;;;;;3.00;2.25;;;;;22.49;42.70;102348.47;5071327;27;45279;-58
2022/07/10 09:03:29;;;;;;;;;3.50;2.00;;;;;22.53;42.46;102350.78;5069551;28;45434;-58
2022/07/10 09:05:55;;;;;;;;;1.75;1.75;;;;;22.57;42.65;102346.84;5065581;27;45397;-57
2022/07/10 09:08:26;;;;;;;;;4.75;2.25;;;;;22.59;42.60;102330.59;5070173;27;45464;-58
2022/07/10 09:10:52;;;;;;;;;1.50;1.00;;;;;22.64;42.33;102336.44;5076417;27;45531;-58
2022/07/10 09:13:18;;;;;;;;;3.75;2.75;;;;;22.72;42.26;102335.78;5074094;27;46010;-62
2022/07/10 09:15:50;;;;;;;;;2.00;2.00;;;;;22.76;42.15;102332.72;5075784;27;45437;-60
2022/07/10 09:18:20;;;;;;;;;2.00;2.00;;;;;22.81;41.81;102329.63;5071919;27;45322;-61
2022/07/10 09:20:49;;;;;;;;;2.00;2.00;;;;;22.84;42.19;102329.38;5073154;28;45487;-60
2022/07/10 09:23:19;;;;;;;;;2.50;2.00;;;;;22.91;41.94;102327.00;5068935;28;46406;-62
2022/07/10 09:25:50;;;;;;;;;1.75;1.75;;;;;22.96;41.84;102322.94;5069763;28;45472;-65
2022/07/10 09:28:25;;;;;;;;;3.00;2.00;;;;;23.00;41.89;102326.25;5073408;28;45315;-65
2022/07/10 09:30:51;;;;;;;;;1.75;1.00;;;;;23.03;41.67;102325.97;5070888;28;46703;-65
2022/07/10 09:33:30;;;;;;;;;2.75;2.00;;;;;23.04;41.54;102320.44;5068672;28;45526;-64
2022/07/10 09:36:10;;;;;;;;;4.25;2.00;;;;;23.12;41.38;102330.53;5073031;27;45313;-63
2022/07/10 09:38:46;;;;;;;;;0.25;0.00;;;;;23.24;41.08;102328.63;5074524;27;45337;-62
2022/07/10 09:41:22;;;;;;;;;1.00;1.00;;;;;23.28;40.66;102324.66;5071510;28;45528;-63
2022/07/10 09:43:59;;;;;;;;;1.00;1.00;;;;;23.34;41.02;102333.03;5071428;28;45326;-67
2022/07/10 09:46:35;;;;;;;;;1.00;1.00;;;;;23.34;40.97;102321.44;5066636;27;45461;-65
2022/07/10 09:49:05;;;;;;;;;2.75;2.75;;;;;23.39;40.81;102330.81;5068236;27;45266;-63
2022/07/10 09:51:36;;;;;;;;;2.00;2.00;;;;;23.45;40.73;102324.00;5070446;28;45379;-62
2022/07/10 09:54:04;;;;;;;;;3.75;2.00;;;;;23.48;40.39;102318.38;5069230;28;45283;-63
2022/07/10 09:56:53;;;;;;;;;2.25;2.00;;;;;23.55;40.34;102322.22;5067635;28;45443;-62
2022/07/10 09:59:21;;;;;;;;;1.75;1.25;;;;;23.63;40.09;102321.59;5069861;28;45268;-64
2022/07/10 10:01:52;;;;;;;;;2.00;2.00;;;;;23.74;40.09;102320.59;5060851;28;45497;-64
2022/07/10 10:04:27;;;;;;;;;2.00;2.00;;;;;23.81;40.19;102319.91;5070209;27;45444;-66
2022/07/10 10:07:00;;;;;;;;;0.75;0.75;;;;;23.88;40.25;102314.81;5069716;28;45680;-63
2022/07/10 10:09:38;;;;;;;;;1.50;1.50;;;;;23.99;39.72;102311.16;5070002;28;45453;-60
2022/07/10 10:12:17;;;;;;;;;4.00;2.00;;;;;24.06;39.75;102307.75;5072337;27;45437;-64
2022/07/10 10:14:44;;;;;;;;;1.75;1.00;;;;;24.10;39.60;102316.41;5070007;28;45343;-63
2022/07/10 10:17:11;;;;;;;;;2.00;2.00;;;;;24.16;39.48;102316.69;5068532;28;45407;-64
2022/07/10 10:22:23;;;;;;;;;1.50;1.50;;;;;24.35;39.59;102299.72;5069158;27;45369;-62
2022/07/10 10:24:50;;;;;;;;;2.00;2.00;;;;;24.46;39.64;102296.84;5070760;27;45263;-62
2022/07/10 10:27:16;;;;;;;;;2.00;2.00;;;;;24.48;39.53;102297.56;5068914;28;45319;-61
2022/07/10 10:29:43;;;;;;;;;2.00;2.00;;;;;24.54;39.20;102296.13;5070521;27;45323;-61
2022/07/10 10:32:09;;;;;;;;;2.00;2.00;;;;;24.57;38.81;102287.78;5073335;28;45237;-61
2022/07/10 10:34:56;;;;;;;;;2.00;2.00;;;;;24.61;38.79;102291.88;5074191;27;46070;-61
2022/07/10 10:37:27;;;;;;;;;0.50;0.50;;;;;24.67;39.10;102293.16;5069923;27;45393;-62
2022/07/10 10:39:57;;;;;;;;;2.25;1.00;;;;;24.66;38.80;102286.91;5069771;27;45328;-62
2022/07/10 10:42:39;;;;;;;;;2.50;2.00;;;;;24.73;39.16;102292.56;5074242;28;45475;-62
2022/07/10 10:45:31;;;;;;;;;2.00;2.00;;;;;24.81;38.48;102276.53;5072845;27;45390;-63
2022/07/10 10:48:11;;;;;;;;;3.00;3.00;;;;;24.90;38.57;102274.78;5072144;28;45223;-61
2022/07/10 10:50:51;;;;;;;;;1.00;1.00;;;;;24.98;38.47;102270.34;5072522;28;45406;-60
2022/07/10 10:53:20;;;;;;;;;2.00;2.00;;;;;24.98;38.80;102278.44;5074307;28;45346;-62
2022/07/10 10:56:07;;;;;;;;;4.00;2.00;;;;;24.96;38.57;102266.97;5073343;27;46293;-61
2022/07/10 10:58:40;;;;;;;;;1.50;1.50;;;;;24.94;38.72;102265.41;5073880;28;45344;-62
2022/07/10 11:01:26;;;;;;;;;1.50;1.50;;;;;24.97;38.25;102262.41;5075217;27;45425;-61
2022/07/10 11:04:03;;;;;;;;;2.00;1.75;;;;;25.05;38.47;102263.41;5082080;28;45309;-61
2022/07/10 11:06:51;;;;;;;;;1.00;1.00;;;;;25.10;38.59;102251.31;5079805;27;46343;-56
2022/07/10 11:09:45;;;;;;;;;1.25;1.25;;;;;25.15;38.31;102249.88;5082343;28;45184;-61
2022/07/10 11:12:12;;;;;;;;;1.00;1.00;;;;;25.19;38.41;102261.19;5083648;27;45456;-60
2022/07/10 11:14:46;;;;;;;;;2.00;1.75;;;;;25.23;38.36;102241.03;5074967;27;45305;-59
2022/07/10 11:17:12;;;;;;;;;3.00;1.00;;;;;25.34;38.23;102236.25;5077163;27;46207;-63
2022/07/10 11:19:39;;;;;;;;;1.75;1.00;;;;;25.41;38.02;102233.81;5082416;27;45343;-60
2022/07/10 11:22:19;;;;;;;;;1.75;1.00;;;;;25.46;38.22;102236.91;5083016;27;45502;-62
2022/07/10 11:25:21;;;;;;;;;3.75;2.00;;;;;25.57;37.86;102235.84;5083813;28;45302;-62
2022/07/10 11:28:07;;;;;;;;;2.00;1.00;;;;;25.67;37.71;102231.22;5076530;27;45417;-54
2022/07/10 11:30:54;;;;;;;;;3.00;3.00;;;;;25.75;37.57;102228.66;5078595;28;45604;-53
2022/07/10 11:33:21;;;;;;;;;2.75;1.75;;;;;25.79;37.71;102223.78;5079737;27;45302;-54
2022/07/10 11:35:50;;;;;;;;;4.50;3.50;;;;;25.87;37.65;102227.41;5083564;27;45533;-57
2022/07/10 11:38:22;;;;;;;;;1.75;1.00;;;;;25.92;37.90;102221.56;5083875;27;45330;-56
2022/07/10 11:40:48;;;;;;;;;1.00;1.00;;;;;25.97;37.63;102216.50;5084296;27;45255;-58